Elverson, Pennsylvania
Current Conditions -  °F | °C
As of 2:55 PM on Wednesday 17 Dec 2014 (Local Time) from KMQS Reporting Station
Overcast Overcast  
Wind Chill: 39°   Ceiling: 4000
Heat Index: 46°   Visibility: 10mi
Dew Point: 36°   Wind: 20mph
Humidity: 66%   Direction: 300°WNW
Pressure: 29.92"   Gusts: 24mph
Location:  40.16°N, 75.83°W
Report Text: KMQS 171955Z AUTO 30017G21KT 10SM OVC040 08/02 A2992 RMK AO2
Loading
Personal Weather Stations






























Interactive Weather Map New forecast layout! Learn more

10-Day Weather Forecast

Advertisements
Track Severe Weather on mobile